MMTO/TLC METAR and TAF weather

Enter ICAO airport designator
Station Type Date Time Source
MMTO METAR 2021/03/04 21:48 UTC NOAA

MMTO 042148Z 15011KT 6SM SCT015 27/01 A3029 RMK 8/100 HZY


Station Type Date Time Source
MMTO Decoded METAR 2021/03/04 21:48 UTC NOAA

Toluca / Jose Maria , Mexico (MMTO) 19-21N 099-34W
Mar 04, 2021 - 04:48 PM EST / 2021.03.04 2148 UTC
Wind: from the SSE (150 degrees) at 13 MPH (11 KT):0
Visibility: 6 mile(s):0
Sky conditions: partly cloudy
Temperature: 80 F (27 C)
Dew Point: 33 F (1 C)
Relative Humidity: 18%
Pressure (altimeter): 30.29 in. Hg (1025 hPa)
ob: MMTO 042148Z 15011KT 6SM SCT015 27/01 A3029 RMK 8/100 HZY
cycle: 22

Station Type Date Time Source
MMTO TAF 2021/03/04 18:23 UTC NOAA

TAF MMTO 041616Z 0418/0524 08008KT 5SM HZ SKC TX29/0420Z TN04/0512Z
FM050300 00000KT 5SM HZ
BECMG 0510/0511 3SM HZ
FM051700 30005KT 5SM HZ SKC
BECMG 0518/0519 06008KT 6SM HZ SCT100

Example: see airport list